Time;durP1;ratioP1;P1;durP2;ratioP2;P2;SDS_P1;SDS_P2;PMS_P1;PMS_P2;Temp;Humidity;BMP_temperature;BMP_pressure;BME280_temperature;BME280_humidity;BME280_pressure;Samples;Min_cycle;Max_cycle;Signal;HPM_P1;HPM_P2
2022/03/15 00:01:14;;;;;;;34.85;20.58;;;4.90;99.90;;;;;;4920271;28;89543;-39
2022/03/15 00:03:40;;;;;;;33.35;20.98;;;4.90;99.90;;;;;;4920353;28;88908;-38
2022/03/15 00:06:05;;;;;;;34.13;20.80;;;4.90;99.90;;;;;;4920717;28;90767;-38
2022/03/15 00:08:32;;;;;;;28.65;20.23;;;4.90;99.90;;;;;;4920601;28;89107;-38
2022/03/15 00:11:02;;;;;;;32.53;21.08;;;4.90;99.90;;;;;;4920172;28;88199;-41
2022/03/15 00:13:40;;;;;;;32.17;21.77;;;4.90;99.90;;;;;;4957693;28;88957;-35
2022/03/15 00:16:10;;;;;;;33.00;20.70;;;4.90;99.90;;;;;;4959048;28;91056;-35
2022/03/15 00:18:37;;;;;;;34.08;22.42;;;4.90;99.90;;;;;;4958043;28;90698;-35
2022/03/15 00:21:04;;;;;;;39.33;22.00;;;5.00;99.90;;;;;;4960513;28;91318;-32
2022/03/15 00:23:31;;;;;;;37.10;21.77;;;5.00;99.90;;;;;;4959576;28;88473;-33
2022/03/15 00:25:57;;;;;;;39.95;21.05;;;5.00;99.90;;;;;;4958900;28;90421;-32
2022/03/15 00:28:22;;;;;;;28.77;22.60;;;5.00;99.90;;;;;;4959761;28;89684;-34
2022/03/15 00:30:49;;;;;;;32.97;21.35;;;5.00;99.90;;;;;;4958878;28;90474;-31
2022/03/15 00:33:15;;;;;;;35.15;22.25;;;5.00;99.90;;;;;;4959954;28;87878;-32
2022/03/15 00:35:41;;;;;;;31.15;21.75;;;5.00;99.90;;;;;;4959546;28;89273;-31
2022/03/15 00:38:07;;;;;;;38.60;22.13;;;5.00;99.90;;;;;;4958841;28;89774;-32
2022/03/15 00:40:33;;;;;;;35.75;22.38;;;5.00;99.90;;;;;;4959279;28;89633;-32
2022/03/15 00:42:58;;;;;;;28.75;20.42;;;5.00;99.90;;;;;;4959280;28;89481;-31
2022/03/15 00:45:24;;;;;;;39.28;23.40;;;5.10;99.90;;;;;;4959285;28;89488;-31
2022/03/15 00:47:51;;;;;;;34.72;22.42;;;5.10;99.90;;;;;;4959218;28;88316;-32
2022/03/15 00:50:17;;;;;;;37.90;20.92;;;5.10;99.90;;;;;;4958463;28;89808;-32
2022/03/15 00:52:44;;;;;;;33.65;20.83;;;5.10;99.90;;;;;;4959239;28;87921;-36
2022/03/15 00:55:10;;;;;;;31.73;20.77;;;5.10;99.90;;;;;;4959504;28;89842;-34
2022/03/15 00:57:36;;;;;;;26.65;21.15;;;5.10;99.90;;;;;;4959453;28;89863;-30
2022/03/15 01:00:07;;;;;;;34.13;20.27;;;5.10;99.90;;;;;;4959319;28;89670;-31
2022/03/15 01:02:32;;;;;;;42.13;21.75;;;5.20;99.90;;;;;;4957637;28;88241;-31
2022/03/15 01:04:58;;;;;;;33.67;21.90;;;5.20;99.90;;;;;;4958974;28;90358;-32
2022/03/15 01:07:24;;;;;;;30.38;22.00;;;5.20;99.90;;;;;;4957334;28;90772;-34
2022/03/15 01:09:50;;;;;;;32.90;20.42;;;5.10;99.90;;;;;;4958967;28;90551;-31
2022/03/15 01:12:16;;;;;;;37.17;22.58;;;5.10;99.90;;;;;;4958488;28;88413;-32
2022/03/15 01:14:42;;;;;;;29.13;19.92;;;5.10;99.90;;;;;;4958740;28;89206;-32
2022/03/15 01:17:07;;;;;;;33.05;20.80;;;5.10;99.90;;;;;;4958907;28;90829;-32
2022/03/15 01:19:33;;;;;;;32.20;21.75;;;5.10;99.90;;;;;;4958391;28;90000;-31
2022/03/15 01:21:59;;;;;;;35.95;21.55;;;5.10;99.90;;;;;;4958769;28;87521;-33
2022/03/15 01:24:25;;;;;;;30.95;19.02;;;5.10;99.90;;;;;;4958814;28;89759;-31
2022/03/15 01:26:52;;;;;;;30.25;21.38;;;5.10;99.90;;;;;;4958597;28;90199;-34
2022/03/15 01:29:20;;;;;;;31.33;21.40;;;5.00;99.90;;;;;;4961134;28;88637;-32
2022/03/15 01:31:46;;;;;;;28.88;20.00;;;5.00;99.90;;;;;;4961258;28;89494;-31
2022/03/15 01:34:11;;;;;;;35.95;21.05;;;5.00;99.90;;;;;;4961871;28;89230;-35
2022/03/15 01:36:37;;;;;;;28.48;21.02;;;5.00;99.90;;;;;;4961947;28;89829;-30
2022/03/15 01:39:04;;;;;;;29.77;19.35;;;4.90;99.90;;;;;;4962085;28;90160;-31
2022/03/15 01:41:35;;;;;;;30.17;19.90;;;4.90;99.90;;;;;;4962423;28;88156;-33
2022/03/15 01:44:03;;;;;;;30.70;18.90;;;4.90;99.90;;;;;;4961609;28;90159;-31
2022/03/15 01:46:28;;;;;;;24.35;18.00;;;4.80;99.90;;;;;;4962045;28;88795;-35
2022/03/15 01:48:54;;;;;;;20.92;15.85;;;4.70;99.90;;;;;;4962029;28;89601;-33
2022/03/15 01:51:21;;;;;;;20.30;16.92;;;4.60;99.90;;;;;;4961821;28;89770;-36
2022/03/15 01:53:47;;;;;;;20.90;15.90;;;4.50;99.90;;;;;;4961643;28;90475;-33
2022/03/15 01:56:12;;;;;;;18.10;15.73;;;4.40;99.90;;;;;;4960643;28;90549;-33
2022/03/15 01:58:38;;;;;;;34.60;17.77;;;4.30;99.90;;;;;;4961546;28;91226;-34
2022/03/15 02:01:04;;;;;;;23.35;17.35;;;4.10;99.90;;;;;;4961808;28;89230;-33
2022/03/15 02:03:30;;;;;;;18.83;16.30;;;4.00;99.90;;;;;;4961443;28;90725;-32
2022/03/15 02:05:56;;;;;;;20.83;14.75;;;4.00;99.90;;;;;;4960858;28;90250;-31
2022/03/15 02:08:21;;;;;;;22.25;16.10;;;4.00;99.90;;;;;;4961289;28;89866;-31
2022/03/15 02:10:47;;;;;;;24.23;16.90;;;3.90;99.90;;;;;;4961924;28;88230;-33
2022/03/15 02:13:13;;;;;;;23.92;16.25;;;3.90;99.90;;;;;;4961433;28;90551;-30
2022/03/15 02:15:38;;;;;;;20.77;16.40;;;3.80;99.90;;;;;;4961285;28;89224;-36
2022/03/15 02:18:05;;;;;;;23.00;17.83;;;3.80;99.90;;;;;;4961502;28;89384;-32
2022/03/15 02:20:31;;;;;;;26.80;17.08;;;3.80;99.90;;;;;;4960236;28;87861;-33
2022/03/15 02:22:57;;;;;;;24.05;16.38;;;3.70;99.90;;;;;;4960507;28;91959;-35
2022/03/15 02:25:23;;;;;;;19.05;16.65;;;3.60;99.90;;;;;;4961556;28;89730;-32
2022/03/15 02:27:49;;;;;;;26.52;14.48;;;3.50;99.90;;;;;;4960540;28;89710;-31
2022/03/15 02:30:15;;;;;;;19.40;15.23;;;3.50;99.90;;;;;;4961305;28;87717;-33
2022/03/15 02:32:42;;;;;;;28.98;16.48;;;3.40;99.90;;;;;;4960513;28;91909;-31
2022/03/15 02:35:08;;;;;;;20.95;14.73;;;3.30;99.90;;;;;;4961331;28;89682;-32
2022/03/15 02:37:34;;;;;;;19.35;16.52;;;3.20;99.90;;;;;;4961405;28;91456;-34
2022/03/15 02:40:00;;;;;;;20.75;14.77;;;3.20;99.90;;;;;;4960142;28;88476;-34
2022/03/15 02:42:25;;;;;;;21.83;15.90;;;3.10;99.90;;;;;;4960724;28;90341;-35
2022/03/15 02:44:51;;;;;;;19.10;15.77;;;3.10;99.90;;;;;;4960184;28;90663;-32
2022/03/15 02:47:16;;;;;;;20.83;16.13;;;3.10;99.90;;;;;;4960545;28;90294;-35
2022/03/15 02:49:42;;;;;;;20.20;15.30;;;3.10;99.90;;;;;;4960987;28;87809;-32
2022/03/15 02:52:09;;;;;;;19.48;16.23;;;3.10;99.90;;;;;;4960342;28;89522;-31
2022/03/15 02:54:37;;;;;;;18.08;16.27;;;3.00;99.90;;;;;;4960397;28;90053;-34
2022/03/15 02:57:03;;;;;;;23.30;17.15;;;3.00;99.90;;;;;;4961352;28;89962;-31
2022/03/15 02:59:29;;;;;;;24.45;16.17;;;3.00;99.90;;;;;;4960652;28;89509;-30
2022/03/15 03:01:54;;;;;;;17.63;15.68;;;3.00;99.90;;;;;;4960596;28;90130;-35
2022/03/15 03:04:21;;;;;;;18.88;16.17;;;3.10;99.90;;;;;;4960108;28;89451;-33
2022/03/15 03:06:47;;;;;;;20.10;18.00;;;3.10;99.90;;;;;;4959597;28;89462;-33
2022/03/15 03:09:13;;;;;;;21.27;16.30;;;3.10;99.90;;;;;;4960784;28;89858;-33
2022/03/15 03:11:39;;;;;;;28.00;16.65;;;3.10;99.90;;;;;;4959750;28;92171;-33
2022/03/15 03:14:06;;;;;;;23.65;17.33;;;3.20;99.90;;;;;;4961168;28;89363;-31
2022/03/15 03:16:32;;;;;;;23.33;17.75;;;3.10;99.90;;;;;;4960925;28;89410;-34
2022/03/15 03:19:01;;;;;;;25.63;19.50;;;3.10;99.90;;;;;;4959827;28;89339;-32
2022/03/15 03:21:28;;;;;;;29.35;17.73;;;3.10;99.90;;;;;;4960061;28;88730;-34
2022/03/15 03:23:56;;;;;;;27.63;18.05;;;3.10;99.90;;;;;;4960334;28;89279;-37
2022/03/15 03:26:23;;;;;;;24.27;17.60;;;3.10;99.90;;;;;;4960534;28;89223;-32
2022/03/15 03:28:50;;;;;;;30.73;19.17;;;3.10;99.90;;;;;;4960679;28;88039;-31
2022/03/15 03:31:16;;;;;;;28.38;18.17;;;3.10;99.90;;;;;;4959838;28;90144;-32
2022/03/15 03:33:42;;;;;;;27.85;19.35;;;3.10;99.90;;;;;;4959511;28;90681;-36
2022/03/15 03:36:09;;;;;;;20.10;15.20;;;3.10;99.90;;;;;;4960539;28;91975;-31
2022/03/15 03:38:36;;;;;;;20.75;15.07;;;3.10;99.90;;;;;;4960200;28;89205;-35
2022/03/15 03:41:03;;;;;;;19.83;15.77;;;3.00;99.90;;;;;;4959849;28;90097;-32
2022/03/15 03:43:29;;;;;;;24.27;16.55;;;2.90;99.90;;;;;;4960314;28;89620;-34
2022/03/15 03:45:55;;;;;;;21.02;16.63;;;2.90;99.90;;;;;;4958976;28;88490;-33
2022/03/15 03:48:23;;;;;;;23.90;16.63;;;2.80;99.90;;;;;;4960199;28;89450;-36
2022/03/15 03:50:50;;;;;;;19.08;16.25;;;2.80;99.90;;;;;;4960164;28;90483;-32
2022/03/15 03:53:17;;;;;;;24.60;18.75;;;2.80;99.90;;;;;;4959886;28;88981;-33
2022/03/15 03:55:44;;;;;;;29.85;19.92;;;2.70;99.90;;;;;;4959114;28;89822;-31
2022/03/15 03:58:09;;;;;;;27.75;19.27;;;2.80;99.90;;;;;;4959840;28;89968;-33
2022/03/15 04:00:35;;;;;;;23.63;17.83;;;2.80;99.90;;;;;;4960077;28;90184;-31
2022/03/15 04:03:01;;;;;;;32.38;24.48;;;2.80;99.90;;;;;;4959621;28;89404;-34
2022/03/15 04:05:30;;;;;;;36.08;25.80;;;2.80;99.90;;;;;;4959685;28;87990;-32
2022/03/15 04:07:59;;;;;;;34.17;22.42;;;2.90;99.90;;;;;;4959709;28;88394;-31
2022/03/15 04:10:26;;;;;;;;;;;3.00;99.90;;;;;;4960525;28;89799;-32
2022/03/15 04:12:52;;;;;;;26.70;19.08;;;3.10;99.90;;;;;;4961048;28;89420;-31
2022/03/15 04:15:18;;;;;;;32.13;23.63;;;3.20;99.90;;;;;;4960157;28;89344;-32
2022/03/15 04:17:43;;;;;;;32.45;23.63;;;3.20;99.90;;;;;;4959470;28;89679;-31
2022/03/15 04:20:10;;;;;;;30.67;23.52;;;3.30;99.90;;;;;;4960004;28;89164;-32
2022/03/15 04:22:35;;;;;;;38.38;26.92;;;3.30;99.90;;;;;;4959270;28;90585;-32
2022/03/15 04:25:01;;;;;;;36.55;26.55;;;3.40;99.90;;;;;;4959472;28;90785;-33
2022/03/15 04:27:26;;;;;;;30.65;27.55;;;3.50;99.90;;;;;;4959447;28;89482;-34
2022/03/15 04:29:52;;;;;;;31.95;26.67;;;3.60;99.90;;;;;;4957467;28;90393;-35
2022/03/15 04:32:18;;;;;;;37.15;28.70;;;3.70;99.90;;;;;;4958848;28;89532;-35
2022/03/15 04:34:44;;;;;;;38.67;28.27;;;3.70;99.90;;;;;;4960344;28;89482;-30
2022/03/15 04:37:10;;;;;;;33.88;27.80;;;3.80;99.90;;;;;;4959421;28;89722;-31
2022/03/15 04:39:36;;;;;;;35.55;29.40;;;3.80;99.90;;;;;;4959415;28;91113;-31
2022/03/15 04:42:03;;;;;;;35.65;29.42;;;3.80;99.90;;;;;;4958720;28;89789;-34
2022/03/15 04:44:28;;;;;;;39.75;28.58;;;3.90;99.90;;;;;;4958974;28;89614;-33
2022/03/15 04:46:54;;;;;;;29.88;26.75;;;3.90;99.90;;;;;;4958871;28;90541;-32
2022/03/15 04:49:20;;;;;;;32.75;26.45;;;3.90;99.90;;;;;;4959490;28;90205;-31
2022/03/15 04:51:46;;;;;;;37.72;29.30;;;4.00;99.90;;;;;;4959142;28;89735;-33
2022/03/15 04:54:12;;;;;;;36.60;28.88;;;4.00;99.90;;;;;;4959375;28;89985;-33
2022/03/15 04:56:38;;;;;;;39.25;30.48;;;4.00;99.90;;;;;;4958372;28;87567;-34
2022/03/15 04:59:04;;;;;;;38.95;30.35;;;4.00;99.90;;;;;;4959249;28;90624;-33
2022/03/15 05:01:30;;;;;;;39.30;29.08;;;4.00;99.90;;;;;;4959157;28;89050;-35
2022/03/15 05:03:55;;;;;;;36.25;30.83;;;4.10;99.90;;;;;;4961261;28;89185;-35
2022/03/15 05:06:21;;;;;;;43.05;33.55;;;4.10;99.90;;;;;;4962536;28;88744;-33
2022/03/15 05:08:48;;;;;;;42.60;31.60;;;4.10;99.90;;;;;;4962223;28;90349;-37
2022/03/15 05:11:14;;;;;;;40.28;30.52;;;4.10;99.90;;;;;;4962701;28;90647;-33
2022/03/15 05:13:44;;;;;;;35.20;30.88;;;4.10;99.90;;;;;;4962348;28;92258;-31
2022/03/15 05:16:15;;;;;;;38.05;31.42;;;4.10;99.90;;;;;;4962182;28;88350;-34
2022/03/15 05:18:41;;;;;;;45.08;32.65;;;4.20;99.90;;;;;;4962199;28;91773;-31
2022/03/15 05:21:08;;;;;;;42.72;33.40;;;4.20;99.90;;;;;;4962021;28;90224;-33
2022/03/15 05:23:34;;;;;;;40.08;30.92;;;4.20;99.90;;;;;;4962167;28;88429;-31
2022/03/15 05:26:01;;;;;;;43.08;32.83;;;4.20;99.90;;;;;;4962302;28;88211;-31
2022/03/15 05:28:27;;;;;;;44.28;33.20;;;4.20;99.90;;;;;;4962064;28;90407;-31
2022/03/15 05:30:53;;;;;;;46.20;33.13;;;4.20;99.90;;;;;;4961798;28;88409;-36
2022/03/15 05:33:19;;;;;;;42.72;32.45;;;4.20;99.90;;;;;;4961465;28;90447;-34
2022/03/15 05:35:44;;;;;;;45.63;33.30;;;4.20;99.90;;;;;;4960669;28;90201;-36
2022/03/15 05:38:10;;;;;;;43.78;32.60;;;4.20;99.90;;;;;;4962403;28;90521;-33
2022/03/15 05:40:36;;;;;;;43.47;33.70;;;4.20;99.90;;;;;;4961873;28;88851;-34
2022/03/15 05:43:02;;;;;;;37.90;31.60;;;4.30;99.90;;;;;;4961738;28;89612;-32
2022/03/15 05:45:28;;;;;;;46.03;34.50;;;4.30;99.90;;;;;;4961822;28;90132;-30
2022/03/15 05:47:54;;;;;;;48.72;35.22;;;4.30;99.90;;;;;;4961252;28;89986;-34
2022/03/15 05:50:20;;;;;;;45.83;35.67;;;4.30;99.90;;;;;;4962371;28;89589;-33
2022/03/15 05:52:46;;;;;;;49.88;36.50;;;4.30;99.90;;;;;;4959967;28;90531;-33
2022/03/15 05:55:12;;;;;;;41.08;35.05;;;4.30;99.90;;;;;;4961586;28;88643;-35
2022/03/15 05:57:39;;;;;;;41.45;34.88;;;4.30;99.90;;;;;;4961595;28;90138;-34
2022/03/15 06:00:09;;;;;;;42.67;33.22;;;4.40;99.90;;;;;;4960973;28;90596;-30
2022/03/15 06:02:35;;;;;;;51.63;36.78;;;4.40;99.90;;;;;;4961227;28;90408;-32
2022/03/15 06:05:03;;;;;;;42.45;34.08;;;4.30;99.90;;;;;;4961763;28;89450;-34
2022/03/15 06:07:29;;;;;;;44.55;36.42;;;4.40;99.90;;;;;;4961349;28;89242;-34
2022/03/15 06:09:54;;;;;;;50.88;36.00;;;4.40;99.90;;;;;;4960732;28;90394;-32
2022/03/15 06:12:24;;;;;;;47.38;38.05;;;4.40;99.90;;;;;;4961475;28;89666;-31
2022/03/15 06:14:50;;;;;;;55.45;36.75;;;4.40;99.90;;;;;;4960592;28;89212;-33
2022/03/15 06:17:15;;;;;;;52.42;36.80;;;4.40;99.90;;;;;;4961617;28;90094;-34
2022/03/15 06:19:41;;;;;;;51.15;36.15;;;4.40;99.90;;;;;;4960860;28;89437;-35
2022/03/15 06:22:06;;;;;;;53.50;36.47;;;4.50;99.90;;;;;;4961627;28;89898;-31
2022/03/15 06:24:32;;;;;;;49.97;35.33;;;4.50;99.90;;;;;;4960269;28;89783;-32
2022/03/15 06:26:58;;;;;;;47.05;36.17;;;4.50;99.90;;;;;;4961245;28;90044;-33
2022/03/15 06:29:25;;;;;;;48.78;38.58;;;4.50;99.90;;;;;;4961042;28;90056;-32
2022/03/15 06:31:51;;;;;;;48.95;34.10;;;4.50;99.90;;;;;;4960245;28;90036;-33
2022/03/15 06:34:16;;;;;;;56.25;36.45;;;4.50;99.90;;;;;;4961228;28;88368;-34
2022/03/15 06:36:42;;;;;;;42.50;35.33;;;4.60;99.90;;;;;;4959645;28;90434;-33
2022/03/15 06:39:08;;;;;;;44.50;35.13;;;4.60;99.90;;;;;;4960675;28;89340;-31
2022/03/15 06:41:38;;;;;;;45.75;35.80;;;4.60;99.90;;;;;;4960744;28;90813;-33
2022/03/15 06:44:05;;;;;;;44.58;35.60;;;4.60;99.90;;;;;;4961313;28;89468;-34
2022/03/15 06:46:31;;;;;;;53.55;38.72;;;4.60;99.90;;;;;;4960549;28;91256;-32
2022/03/15 06:48:57;;;;;;;56.65;40.50;;;4.70;99.90;;;;;;4960420;28;90653;-33
2022/03/15 06:51:23;;;;;;;54.10;40.03;;;4.70;99.90;;;;;;4961025;28;90724;-33
2022/03/15 06:53:49;;;;;;;55.78;41.60;;;4.80;99.90;;;;;;4960101;28;90198;-35
2022/03/15 06:56:14;;;;;;;57.15;43.17;;;4.80;99.90;;;;;;4961060;28;88911;-31
2022/03/15 06:58:40;;;;;;;49.10;40.83;;;4.90;99.90;;;;;;4960092;28;90504;-30
2022/03/15 07:01:05;;;;;;;54.67;42.50;;;4.90;99.90;;;;;;4961065;28;89545;-33
2022/03/15 07:03:31;;;;;;;56.55;41.15;;;5.00;99.90;;;;;;4960869;28;90130;-33
2022/03/15 07:05:57;;;;;;;60.08;42.90;;;5.00;99.90;;;;;;4960957;28;88879;-32
2022/03/15 07:08:22;;;;;;;51.05;40.17;;;5.00;99.90;;;;;;4960417;28;89636;-33
2022/03/15 07:10:48;;;;;;;53.50;40.95;;;5.10;99.90;;;;;;4959471;28;89569;-35
2022/03/15 07:13:13;;;;;;;59.10;41.08;;;5.10;99.90;;;;;;4960221;28;89350;-31
2022/03/15 07:15:39;;;;;;;58.72;43.30;;;5.10;99.90;;;;;;4959936;28;91505;-31
2022/03/15 07:18:05;;;;;;;57.70;40.97;;;5.10;99.90;;;;;;4960150;28;89604;-32
2022/03/15 07:20:30;;;;;;;48.03;41.40;;;5.20;99.90;;;;;;4959919;28;89983;-31
2022/03/15 07:22:56;;;;;;;65.38;44.97;;;5.20;99.90;;;;;;4960072;28;87479;-34
2022/03/15 07:25:22;;;;;;;55.50;43.80;;;5.20;99.90;;;;;;4959519;28;90143;-31
2022/03/15 07:27:48;;;;;;;53.45;43.38;;;5.20;99.90;;;;;;4959300;28;89508;-34
2022/03/15 07:30:14;;;;;;;52.42;40.30;;;5.20;99.90;;;;;;4956727;28;89595;-34
2022/03/15 07:32:40;;;;;;;58.83;41.75;;;5.30;99.90;;;;;;4957680;28;88972;-34
2022/03/15 07:35:07;;;;;;;59.00;43.55;;;5.30;99.90;;;;;;4958051;28;90156;-35
2022/03/15 07:37:33;;;;;;;59.28;44.30;;;5.40;99.90;;;;;;4958052;28;90545;-34
2022/03/15 07:39:58;;;;;;;52.53;41.28;;;5.40;99.90;;;;;;4958173;28;91230;-35
2022/03/15 07:42:24;;;;;;;67.05;43.88;;;5.40;99.90;;;;;;4958181;28;87919;-31
2022/03/15 07:44:50;;;;;;;52.95;43.50;;;5.40;99.90;;;;;;4956474;28;90489;-32
2022/03/15 07:47:16;;;;;;;57.90;44.92;;;5.50;99.90;;;;;;4958271;28;89552;-32
2022/03/15 07:49:42;;;;;;;53.45;40.47;;;5.50;99.90;;;;;;4958397;28;90373;-31
2022/03/15 07:52:09;;;;;;;50.80;37.80;;;5.60;99.90;;;;;;4957896;28;87550;-34
2022/03/15 07:54:35;;;;;;;62.92;42.70;;;5.60;99.90;;;;;;4958096;28;90202;-32
2022/03/15 07:57:01;;;;;;;61.15;42.35;;;5.60;99.90;;;;;;4957805;28;89443;-32
2022/03/15 07:59:28;;;;;;;55.78;42.95;;;5.70;99.90;;;;;;4957843;28;88684;-33
2022/03/15 08:01:53;;;;;;;67.43;44.05;;;5.70;99.90;;;;;;4957316;28;89947;-31
2022/03/15 08:04:19;;;;;;;61.45;44.17;;;5.70;99.90;;;;;;4958170;28;90320;-32
2022/03/15 08:06:45;;;;;;;58.63;43.33;;;5.80;99.90;;;;;;4957130;28;90005;-31
2022/03/15 08:09:10;;;;;;;53.08;42.58;;;5.80;99.90;;;;;;4957849;28;89527;-31
2022/03/15 08:11:36;;;;;;;58.25;44.33;;;5.80;99.90;;;;;;4957083;28;88335;-32
2022/03/15 08:14:02;;;;;;;51.10;41.35;;;5.90;99.90;;;;;;4958287;28;90175;-33
2022/03/15 08:16:28;;;;;;;57.15;45.17;;;5.90;99.90;;;;;;4957803;28;91488;-32
2022/03/15 08:18:54;;;;;;;55.25;44.55;;;5.90;99.90;;;;;;4957278;28;89614;-32
2022/03/15 08:21:22;;;;;;;56.40;43.35;;;5.90;99.90;;;;;;4958082;28;88181;-31
2022/03/15 08:23:48;;;;;;;58.77;46.33;;;6.00;99.90;;;;;;4957002;28;91494;-32
2022/03/15 08:26:15;;;;;;;61.75;45.15;;;6.00;99.90;;;;;;4957437;28;90442;-37
2022/03/15 08:28:41;;;;;;;59.80;45.42;;;6.00;99.90;;;;;;4957358;28;90427;-32
2022/03/15 08:31:06;;;;;;;56.03;44.78;;;6.10;99.90;;;;;;4957088;28;88663;-36
2022/03/15 08:33:32;;;;;;;55.67;43.58;;;6.10;99.90;;;;;;4957680;28;89853;-33
2022/03/15 08:35:58;;;;;;;54.20;42.78;;;6.20;99.90;;;;;;4956812;28;91765;-33
2022/03/15 08:38:25;;;;;;;51.30;44.17;;;6.20;99.90;;;;;;4956488;28;89508;-32
2022/03/15 08:40:51;;;;;;;54.22;42.75;;;6.30;99.90;;;;;;4957615;28;88271;-37
2022/03/15 08:43:17;;;;;;;54.17;42.42;;;6.30;99.90;;;;;;4957172;28;90811;-33
2022/03/15 08:45:43;;;;;;;56.92;42.25;;;6.40;99.90;;;;;;4956510;28;90068;-33
2022/03/15 08:48:09;;;;;;;55.03;43.42;;;6.40;99.90;;;;;;4955735;28;89412;-33
2022/03/15 08:50:35;;;;;;;51.15;39.33;;;6.50;99.90;;;;;;4956570;28;89727;-32
2022/03/15 08:53:01;;;;;;;52.42;42.42;;;6.50;99.90;;;;;;4957074;28;90022;-35
2022/03/15 08:55:27;;;;;;;54.67;41.45;;;6.60;99.90;;;;;;4957217;28;89602;-32
2022/03/15 08:57:53;;;;;;;54.47;42.92;;;6.60;99.90;;;;;;4956965;28;89649;-32
2022/03/15 09:00:19;;;;;;;53.70;41.90;;;6.60;99.90;;;;;;4957674;28;89752;-31
2022/03/15 09:02:44;;;;;;;55.17;42.58;;;6.60;99.90;;;;;;4956407;28;90244;-32
2022/03/15 09:05:11;;;;;;;54.78;41.88;;;6.70;99.90;;;;;;4956717;28;88618;-35
2022/03/15 09:07:39;;;;;;;53.13;43.35;;;6.70;99.90;;;;;;4957283;28;89793;-32
2022/03/15 09:10:05;;;;;;;49.22;42.60;;;6.70;99.90;;;;;;4957658;28;88478;-31
2022/03/15 09:12:31;;;;;;;54.90;40.83;;;6.70;99.90;;;;;;4956296;28;89992;-34
2022/03/15 09:14:56;;;;;;;53.65;42.88;;;6.80;99.90;;;;;;4955960;28;90670;-32
2022/03/15 09:17:22;;;;;;;55.33;41.67;;;6.90;99.90;;;;;;4956478;28;90441;-34
2022/03/15 09:19:50;;;;;;;53.72;42.42;;;6.80;99.90;;;;;;4957085;28;89399;-31
2022/03/15 09:22:16;;;;;;;53.83;41.22;;;6.90;99.90;;;;;;4957314;28;90291;-31
2022/03/15 09:24:42;;;;;;;55.70;44.03;;;6.90;99.90;;;;;;4956496;28;89210;-34
2022/03/15 09:27:08;;;;;;;51.72;41.80;;;6.90;99.90;;;;;;4956557;28;89495;-30
2022/03/15 09:29:33;;;;;;;52.97;40.50;;;6.90;99.90;;;;;;4957115;28;88041;-33
2022/03/15 09:31:59;;;;;;;47.25;41.10;;;7.00;99.90;;;;;;4957029;28;89935;-32
2022/03/15 09:34:26;;;;;;;51.60;45.88;;;7.10;99.90;;;;;;4957050;28;90507;-31
2022/03/15 09:36:52;;;;;;;54.05;44.75;;;7.20;99.90;;;;;;4955845;28;89796;-32
2022/03/15 09:39:20;;;;;;;53.35;46.38;;;7.10;99.90;;;;;;4956139;28;89893;-36
2022/03/15 09:41:50;;;;;;;58.58;45.17;;;7.20;99.90;;;;;;4956623;28;90193;-32
2022/03/15 09:44:18;;;;;;;50.45;42.95;;;7.20;99.90;;;;;;4957109;28;89675;-33
2022/03/15 09:46:50;;;;;;;51.85;43.15;;;7.30;99.90;;;;;;4956662;28;89220;-31
2022/03/15 09:49:18;;;;;;;53.13;47.13;;;7.40;99.90;;;;;;4957850;28;88219;-34
2022/03/15 09:51:44;;;;;;;56.22;45.17;;;7.40;99.90;;;;;;4960206;28;88812;-30
2022/03/15 09:54:10;;;;;;;52.17;43.47;;;7.40;99.90;;;;;;4959561;28;89421;-33
2022/03/15 09:56:40;;;;;;;50.60;42.25;;;7.40;99.90;;;;;;4960521;28;90977;-33
2022/03/15 09:59:12;;;;;;;58.03;43.15;;;7.50;99.90;;;;;;4960390;28;88163;-33
2022/03/15 10:01:39;;;;;;;58.75;47.30;;;7.50;99.90;;;;;;4959337;28;90185;-32
2022/03/15 10:04:04;;;;;;;54.15;42.88;;;7.50;99.90;;;;;;4959196;28;90482;-34
2022/03/15 10:06:30;;;;;;;52.05;43.65;;;7.60;99.90;;;;;;4959739;28;90401;-34
2022/03/15 10:08:56;;;;;;;56.17;44.63;;;7.60;99.90;;;;;;4959402;28;88320;-35
2022/03/15 10:11:23;;;;;;;49.45;44.13;;;7.80;99.90;;;;;;4959400;28;91017;-34
2022/03/15 10:13:49;;;;;;;55.47;42.20;;;7.80;99.90;;;;;;4959071;28;89167;-32
2022/03/15 10:16:15;;;;;;;52.65;42.53;;;7.90;99.90;;;;;;4959207;28;90177;-33
2022/03/15 10:18:55;;;;;;;51.40;42.92;;;7.90;99.90;;;;;;4960191;28;89013;-31
2022/03/15 10:21:24;;;;;;;45.70;40.17;;;8.00;99.90;;;;;;4960528;28;90312;-31
2022/03/15 10:23:57;;;;;;;49.40;40.83;;;8.00;99.90;;;;;;4959226;28;89021;-35
2022/03/15 10:26:24;;;;;;;50.80;41.70;;;8.10;99.90;;;;;;4959422;28;89232;-34
2022/03/15 10:28:54;;;;;;;48.55;41.15;;;8.10;99.90;;;;;;4958774;28;90570;-34
2022/03/15 10:31:24;;;;;;;57.28;43.75;;;8.10;99.90;;;;;;4959644;28;90178;-32
2022/03/15 10:33:54;;;;;;;54.55;43.33;;;8.20;99.90;;;;;;4959576;28;89632;-32
2022/03/15 10:36:21;;;;;;;49.08;40.08;;;8.10;99.90;;;;;;4959467;28;90494;-32
2022/03/15 10:38:52;;;;;;;54.17;41.37;;;8.20;99.90;;;;;;4957414;28;89237;-32
2022/03/15 10:41:19;;;;;;;49.38;40.85;;;8.20;99.90;;;;;;4959353;28;90236;-33
2022/03/15 10:43:53;;;;;;;49.58;41.13;;;8.30;99.90;;;;;;4957672;28;89441;-34
2022/03/15 10:46:22;;;;;;;46.85;39.65;;;8.30;99.90;;;;;;4959714;28;90206;-34
2022/03/15 10:48:59;;;;;;;51.25;41.10;;;8.40;99.90;;;;;;4958750;28;89179;-34
2022/03/15 10:51:25;;;;;;;50.58;41.30;;;8.50;99.90;;;;;;4959283;28;90478;-33
2022/03/15 10:54:00;;;;;;;103.70;77.25;;;8.50;99.90;;;;;;4957736;28;89346;-32
2022/03/15 10:56:26;;;;;;;52.33;42.72;;;8.50;99.90;;;;;;4959030;28;90450;-31
2022/03/15 10:59:05;;;;;;;49.45;40.33;;;8.50;99.90;;;;;;4958816;28;89435;-31
2022/03/15 11:01:41;;;;;;;49.35;43.35;;;8.50;99.90;;;;;;4958023;28;90368;-36
2022/03/15 11:04:09;;;;;;;48.63;40.90;;;8.60;99.90;;;;;;4956981;28;91309;-31
2022/03/15 11:06:38;;;;;;;45.60;40.65;;;8.60;99.90;;;;;;4958134;28;89100;-35
2022/03/15 11:09:18;;;;;;;45.72;40.83;;;8.70;99.90;;;;;;4958737;28;88213;-34
2022/03/15 11:12:05;;;;;;;46.03;40.85;;;8.70;99.90;;;;;;4957692;28;90312;-35
2022/03/15 11:14:40;;;;;;;50.15;43.58;;;8.80;99.90;;;;;;4958634;28;89966;-36
2022/03/15 11:17:14;;;;;;;46.63;39.97;;;8.90;99.90;;;;;;4956148;28;89701;-31
2022/03/15 11:19:44;;;;;;;46.38;41.13;;;9.00;99.90;;;;;;4957673;28;90192;-35
2022/03/15 11:22:13;;;;;;;45.10;38.20;;;9.10;99.90;;;;;;4958438;28;89515;-32
2022/03/15 11:24:41;;;;;;;;;;;9.10;99.90;;;;;;4959401;28;90026;-36
2022/03/15 11:27:09;;;;;;;45.08;39.88;;;9.20;99.90;;;;;;4960511;28;89477;-34
2022/03/15 11:29:37;;;;;;;53.80;39.20;;;9.30;99.90;;;;;;4958563;28;89134;-36
2022/03/15 11:32:03;;;;;;;47.97;38.83;;;9.40;99.90;;;;;;4958094;28;90775;-32
2022/03/15 11:34:30;;;;;;;49.17;38.50;;;9.50;99.90;;;;;;4958210;28;89361;-35
2022/03/15 11:36:57;;;;;;;43.88;39.15;;;9.60;99.90;;;;;;4958147;28;89719;-32
2022/03/15 11:39:24;;;;;;;41.17;36.72;;;9.60;99.90;;;;;;4958462;28;88374;-32
2022/03/15 11:41:50;;;;;;;48.38;38.63;;;9.70;99.90;;;;;;4957353;28;89782;-32
2022/03/15 11:44:39;;;;;;;48.72;36.42;;;9.80;99.90;;;;;;4957512;28;90791;-32
2022/03/15 11:47:21;;;;;;;42.90;36.05;;;9.90;99.90;;;;;;4947363;28;89604;-37
2022/03/15 11:50:15;;;;;;;44.10;36.70;;;10.00;99.90;;;;;;4957973;28;89989;-33
2022/03/15 11:53:06;;;;;;;41.58;33.83;;;10.00;99.90;;;;;;4953653;28;89970;-32
2022/03/15 11:55:41;;;;;;;39.10;33.15;;;10.10;99.90;;;;;;4957611;28;89403;-33
2022/03/15 11:58:09;;;;;;;37.95;31.75;;;10.20;99.90;;;;;;4958166;28;89514;-31
2022/03/15 12:00:36;;;;;;;44.58;36.80;;;10.10;99.90;;;;;;4958217;28;89367;-35
2022/03/15 12:03:06;;;;;;;41.03;34.77;;;10.20;99.90;;;;;;4957462;28;90394;-35
2022/03/15 12:05:42;;;;;;;38.65;32.00;;;10.30;99.90;;;;;;4957379;28;90584;-32
2022/03/15 12:08:15;;;;;;;37.88;32.25;;;10.40;99.90;;;;;;4957719;28;89684;-35
2022/03/15 12:11:05;;;;;;;38.40;33.90;;;10.50;99.90;;;;;;4956973;28;89694;-33
2022/03/15 12:13:40;;;;;;;41.20;31.67;;;10.60;99.90;;;;;;4984592;23;93467;-34
2022/03/15 12:16:15;;;;;;;38.80;31.35;;;10.60;99.90;;;;;;4957303;28;88847;-34
2022/03/15 12:18:48;;;;;;;39.78;30.52;;;10.60;99.90;;;;;;4957287;28;89548;-35
2022/03/15 12:21:14;;;;;;;42.53;34.88;;;10.70;99.90;;;;;;4957827;28;89111;-33
2022/03/15 12:23:45;;;;;;;39.05;28.83;;;10.70;99.90;;;;;;4957559;28;90193;-32
2022/03/15 12:26:22;;;;;;;38.92;31.40;;;10.80;99.90;;;;;;4957779;28;90085;-34
2022/03/15 12:29:00;;;;;;;36.95;29.25;;;10.90;99.90;;;;;;4957597;28;89233;-34
2022/03/15 12:31:39;;;;;;;36.80;30.40;;;11.00;99.90;;;;;;4957926;28;89534;-35
2022/03/15 12:34:15;;;;;;;35.88;31.67;;;11.10;99.90;;;;;;4957142;28;90046;-33
2022/03/15 12:37:00;;;;;;;33.58;29.25;;;11.00;99.90;;;;;;4956239;28;90923;-32